Almelund, Minnesota
Current Conditions -  °F | °C
As of 9:55 AM on Thursday 27 Nov 2014 (Local Time) from KOEO Reporting Station
Clear Clear  
Wind Chill:   Ceiling: Unl
Heat Index:   Visibility: 10mi
Dew Point: -6°   Wind: 3mph
Humidity: 70%   Direction: 290°WNW
Pressure: 30.54"   Gusts: NA
Location:  45.49°N, 92.79°W
Report Text: KOEO 271555Z AUTO 29003KT 10SM CLR M17/M21 A3054 RMK AO2 T11671210
Loading
Personal Weather Stations






























Interactive Weather Map New forecast layout! Learn more

10-Day Weather Forecast

Advertisements
Track Severe Weather on mobile